sensor_id;sensor_type;location;lat;lon;timestamp;pressure;altitude;pressure_sealevel;temperature;humidity
29379;BME280;16362;47.202;15.258;2023-01-15T00:01:47;95994.78;;;-0.43;100.00
29379;BME280;16362;47.202;15.258;2023-01-15T00:04:14;95986.41;;;-0.48;100.00
29379;BME280;16362;47.202;15.258;2023-01-15T00:06:41;95988.28;;;-0.51;100.00
29379;BME280;16362;47.202;15.258;2023-01-15T00:09:09;95986.41;;;-0.48;100.00
29379;BME280;16362;47.202;15.258;2023-01-15T00:11:38;95986.78;;;-0.42;100.00
29379;BME280;16362;47.202;15.258;2023-01-15T00:14:05;95977.50;;;-0.46;100.00
29379;BME280;16362;47.202;15.258;2023-01-15T00:16:31;95985.34;;;-0.46;100.00
29379;BME280;16362;47.202;15.258;2023-01-15T00:18:58;95987.13;;;-0.46;100.00
29379;BME280;16362;47.202;15.258;2023-01-15T00:21:26;95978.66;;;-0.50;100.00
29379;BME280;16362;47.202;15.258;2023-01-15T00:23:53;95972.34;;;-0.47;100.00
29379;BME280;16362;47.202;15.258;2023-01-15T00:26:39;95976.50;;;-0.45;100.00
29379;BME280;16362;47.202;15.258;2023-01-15T00:29:24;95964.38;;;-0.46;100.00
29379;BME280;16362;47.202;15.258;2023-01-15T00:32:12;95966.50;;;-0.51;100.00
29379;BME280;16362;47.202;15.258;2023-01-15T00:34:37;95968.78;;;-0.46;100.00
29379;BME280;16362;47.202;15.258;2023-01-15T00:37:04;95967.16;;;-0.36;100.00
29379;BME280;16362;47.202;15.258;2023-01-15T00:39:31;95964.75;;;-0.39;100.00
29379;BME280;16362;47.202;15.258;2023-01-15T00:41:58;95964.03;;;-0.41;100.00
29379;BME280;16362;47.202;15.258;2023-01-15T00:44:25;95967.38;;;-0.39;100.00
29379;BME280;16362;47.202;15.258;2023-01-15T00:46:51;95967.16;;;-0.36;100.00
29379;BME280;16362;47.202;15.258;2023-01-15T00:49:18;95946.41;;;-0.39;100.00
29379;BME280;16362;47.202;15.258;2023-01-15T00:51:44;95947.78;;;-0.46;100.00
29379;BME280;16362;47.202;15.258;2023-01-15T00:57:33;95938.75;;;-0.42;100.00
29379;BME280;16362;47.202;15.258;2023-01-15T01:00:00;95937.19;;;-0.45;100.00
29379;BME280;16362;47.202;15.258;2023-01-15T01:02:26;95934.47;;;-0.43;100.00
29379;BME280;16362;47.202;15.258;2023-01-15T01:04:53;95929.69;;;-0.38;100.00
29379;BME280;16362;47.202;15.258;2023-01-15T01:07:19;95929.69;;;-0.38;100.00
29379;BME280;16362;47.202;15.258;2023-01-15T01:09:47;95933.28;;;-0.39;100.00
29379;BME280;16362;47.202;15.258;2023-01-15T01:12:13;95929.00;;;-0.40;100.00
29379;BME280;16362;47.202;15.258;2023-01-15T01:14:40;95925.44;;;-0.39;100.00
29379;BME280;16362;47.202;15.258;2023-01-15T01:17:07;95921.50;;;-0.33;100.00
29379;BME280;16362;47.202;15.258;2023-01-15T01:19:33;95921.88;;;-0.27;100.00
29379;BME280;16362;47.202;15.258;2023-01-15T01:22:01;95921.38;;;-0.32;100.00
29379;BME280;16362;47.202;15.258;2023-01-15T01:24:28;95912.78;;;-0.34;100.00
29379;BME280;16362;47.202;15.258;2023-01-15T01:26:54;95907.53;;;-0.34;100.00
29379;BME280;16362;47.202;15.258;2023-01-15T01:29:22;95901.91;;;-0.41;100.00
29379;BME280;16362;47.202;15.258;2023-01-15T01:31:49;95910.38;;;-0.48;100.00
29379;BME280;16362;47.202;15.258;2023-01-15T01:34:16;95903.59;;;-0.51;100.00
29379;BME280;16362;47.202;15.258;2023-01-15T01:36:43;95899.41;;;-0.54;100.00
29379;BME280;16362;47.202;15.258;2023-01-15T01:39:14;95896.31;;;-0.47;100.00
29379;BME280;16362;47.202;15.258;2023-01-15T01:41:41;95896.22;;;-0.46;100.00
29379;BME280;16362;47.202;15.258;2023-01-15T01:46:53;95882.50;;;-0.38;100.00
29379;BME280;16362;47.202;15.258;2023-01-15T01:49:20;95892.88;;;-0.37;100.00
29379;BME280;16362;47.202;15.258;2023-01-15T01:51:51;95891.59;;;-0.31;100.00
29379;BME280;16362;47.202;15.258;2023-01-15T01:54:20;95881.94;;;-0.30;100.00
29379;BME280;16362;47.202;15.258;2023-01-15T01:56:47;95874.31;;;-0.33;100.00
29379;BME280;16362;47.202;15.258;2023-01-15T01:59:15;95871.44;;;-0.30;100.00
29379;BME280;16362;47.202;15.258;2023-01-15T02:01:42;95867.03;;;-0.30;100.00
29379;BME280;16362;47.202;15.258;2023-01-15T02:04:09;95869.63;;;-0.30;100.00
29379;BME280;16362;47.202;15.258;2023-01-15T02:06:37;95856.44;;;-0.28;100.00
29379;BME280;16362;47.202;15.258;2023-01-15T02:09:04;95856.91;;;-0.23;100.00
29379;BME280;16362;47.202;15.258;2023-01-15T02:11:31;95846.88;;;-0.18;100.00
29379;BME280;16362;47.202;15.258;2023-01-15T02:14:09;95847.00;;;-0.20;100.00
29379;BME280;16362;47.202;15.258;2023-01-15T02:16:42;95841.53;;;-0.17;100.00
29379;BME280;16362;47.202;15.258;2023-01-15T02:21:49;95832.22;;;-0.21;100.00
29379;BME280;16362;47.202;15.258;2023-01-15T02:24:22;95823.53;;;-0.10;100.00
29379;BME280;16362;47.202;15.258;2023-01-15T02:35:07;95815.66;;;-0.10;100.00
29379;BME280;16362;47.202;15.258;2023-01-15T02:37:38;95807.69;;;-0.20;100.00
29379;BME280;16362;47.202;15.258;2023-01-15T02:40:07;95792.66;;;-0.29;100.00
29379;BME280;16362;47.202;15.258;2023-01-15T02:42:34;95796.00;;;-0.27;100.00
29379;BME280;16362;47.202;15.258;2023-01-15T02:45:02;95797.66;;;-0.26;100.00
29379;BME280;16362;47.202;15.258;2023-01-15T02:47:31;95787.28;;;-0.27;100.00
29379;BME280;16362;47.202;15.258;2023-01-15T02:49:59;95780.47;;;-0.30;100.00
29379;BME280;16362;47.202;15.258;2023-01-15T02:52:28;95771.91;;;-0.32;100.00
29379;BME280;16362;47.202;15.258;2023-01-15T02:54:59;95768.47;;;-0.21;100.00
29379;BME280;16362;47.202;15.258;2023-01-15T02:57:29;95773.47;;;-0.29;100.00
29379;BME280;16362;47.202;15.258;2023-01-15T02:59:58;95765.59;;;-0.29;100.00
29379;BME280;16362;47.202;15.258;2023-01-15T03:02:28;95766.78;;;-0.33;100.00
29379;BME280;16362;47.202;15.258;2023-01-15T03:05:02;95762.63;;;-0.36;100.00
29379;BME280;16362;47.202;15.258;2023-01-15T03:07:35;95756.78;;;-0.51;100.00
29379;BME280;16362;47.202;15.258;2023-01-15T03:10:03;95752.72;;;-0.44;100.00
29379;BME280;16362;47.202;15.258;2023-01-15T03:15:23;95744.50;;;-0.51;100.00
29379;BME280;16362;47.202;15.258;2023-01-15T03:18:10;95747.63;;;-0.57;100.00
29379;BME280;16362;47.202;15.258;2023-01-15T03:20:39;95747.94;;;-0.73;100.00
29379;BME280;16362;47.202;15.258;2023-01-15T03:23:08;95744.47;;;-0.73;100.00
29379;BME280;16362;47.202;15.258;2023-01-15T03:25:38;95746.03;;;-0.71;100.00
29379;BME280;16362;47.202;15.258;2023-01-15T03:28:05;95742.72;;;-0.73;100.00
29379;BME280;16362;47.202;15.258;2023-01-15T03:30:34;95737.22;;;-0.70;100.00
29379;BME280;16362;47.202;15.258;2023-01-15T03:33:01;95733.16;;;-0.74;100.00
29379;BME280;16362;47.202;15.258;2023-01-15T03:38:13;95719.00;;;-0.71;100.00
29379;BME280;16362;47.202;15.258;2023-01-15T03:43:15;95700.66;;;-0.71;100.00
29379;BME280;16362;47.202;15.258;2023-01-15T03:46:08;95697.56;;;-0.76;100.00
29379;BME280;16362;47.202;15.258;2023-01-15T03:51:27;95693.50;;;-0.69;100.00
29379;BME280;16362;47.202;15.258;2023-01-15T03:53:58;95684.00;;;-0.70;100.00
29379;BME280;16362;47.202;15.258;2023-01-15T04:01:31;95682.44;;;-0.61;100.00
29379;BME280;16362;47.202;15.258;2023-01-15T04:04:00;95675.66;;;-0.53;100.00
29379;BME280;16362;47.202;15.258;2023-01-15T04:06:28;95672.06;;;-0.52;100.00
29379;BME280;16362;47.202;15.258;2023-01-15T04:08:56;95667.06;;;-0.55;100.00
29379;BME280;16362;47.202;15.258;2023-01-15T04:11:23;95676.25;;;-0.60;100.00
29379;BME280;16362;47.202;15.258;2023-01-15T04:13:50;95678.28;;;-0.75;100.00
29379;BME280;16362;47.202;15.258;2023-01-15T04:16:23;95674.69;;;-0.86;100.00
29379;BME280;16362;47.202;15.258;2023-01-15T04:18:51;95676.13;;;-0.81;100.00
29379;BME280;16362;47.202;15.258;2023-01-15T04:21:17;95693.16;;;-0.87;100.00
29379;BME280;16362;47.202;15.258;2023-01-15T04:23:44;95687.28;;;-0.91;100.00
29379;BME280;16362;47.202;15.258;2023-01-15T04:26:11;95682.53;;;-0.86;100.00
29379;BME280;16362;47.202;15.258;2023-01-15T04:28:38;95682.53;;;-0.86;100.00
29379;BME280;16362;47.202;15.258;2023-01-15T04:31:05;95666.34;;;-0.91;100.00
29379;BME280;16362;47.202;15.258;2023-01-15T04:33:31;95665.63;;;-0.93;100.00
29379;BME280;16362;47.202;15.258;2023-01-15T04:36:01;95662.78;;;-0.90;100.00
29379;BME280;16362;47.202;15.258;2023-01-15T04:38:28;95664.44;;;-0.89;100.00
29379;BME280;16362;47.202;15.258;2023-01-15T04:40:55;95661.94;;;-0.90;100.00
29379;BME280;16362;47.202;15.258;2023-01-15T04:43:43;95650.03;;;-0.94;100.00
29379;BME280;16362;47.202;15.258;2023-01-15T04:46:29;95648.25;;;-0.94;100.00
29379;BME280;16362;47.202;15.258;2023-01-15T04:48:55;95651.13;;;-0.97;100.00
29379;BME280;16362;47.202;15.258;2023-01-15T04:51:22;95648.25;;;-0.94;100.00
29379;BME280;16362;47.202;15.258;2023-01-15T04:53:48;95653.00;;;-0.99;100.00
29379;BME280;16362;47.202;15.258;2023-01-15T04:56:15;95646.13;;;-1.00;100.00
29379;BME280;16362;47.202;15.258;2023-01-15T04:58:41;95635.03;;;-1.04;100.00
29379;BME280;16362;47.202;15.258;2023-01-15T05:01:11;95638.84;;;-1.08;100.00
29379;BME280;16362;47.202;15.258;2023-01-15T05:03:38;95641.59;;;-1.09;100.00
29379;BME280;16362;47.202;15.258;2023-01-15T05:06:05;95634.44;;;-1.07;100.00
29379;BME280;16362;47.202;15.258;2023-01-15T05:08:32;95632.88;;;-1.10;100.00
29379;BME280;16362;47.202;15.258;2023-01-15T05:11:03;95623.84;;;-1.17;100.00
29379;BME280;16362;47.202;15.258;2023-01-15T05:13:30;95623.22;;;-1.21;100.00
29379;BME280;16362;47.202;15.258;2023-01-15T05:16:08;95610.38;;;-1.24;100.00
29379;BME280;16362;47.202;15.258;2023-01-15T05:18:35;95607.63;;;-1.22;100.00
29379;BME280;16362;47.202;15.258;2023-01-15T05:21:02;95616.44;;;-1.23;100.00
29379;BME280;16362;47.202;15.258;2023-01-15T05:23:28;95613.00;;;-1.24;100.00
29379;BME280;16362;47.202;15.258;2023-01-15T05:25:55;95603.00;;;-1.30;100.00
29379;BME280;16362;47.202;15.258;2023-01-15T05:28:21;95603.84;;;-1.29;100.00
29379;BME280;16362;47.202;15.258;2023-01-15T05:30:48;95602.28;;;-1.32;100.00
29379;BME280;16362;47.202;15.258;2023-01-15T05:33:15;95598.25;;;-1.36;100.00
29379;BME280;16362;47.202;15.258;2023-01-15T05:35:41;95599.19;;;-1.37;100.00
29379;BME280;16362;47.202;15.258;2023-01-15T05:38:08;95596.44;;;-1.36;100.00
29379;BME280;16362;47.202;15.258;2023-01-15T05:40:34;95597.41;;;-1.37;100.00
29379;BME280;16362;47.202;15.258;2023-01-15T05:43:01;95597.28;;;-1.35;100.00
29379;BME280;16362;47.202;15.258;2023-01-15T05:45:27;95594.19;;;-1.40;100.00
29379;BME280;16362;47.202;15.258;2023-01-15T05:47:54;95583.59;;;-1.39;100.00
29379;BME280;16362;47.202;15.258;2023-01-15T05:50:20;95581.47;;;-1.33;100.00
29379;BME280;16362;47.202;15.258;2023-01-15T05:52:47;95579.09;;;-1.25;100.00
29379;BME280;16362;47.202;15.258;2023-01-15T05:55:13;95578.72;;;-1.09;100.00
29379;BME280;16362;47.202;15.258;2023-01-15T05:57:40;95569.31;;;-1.12;100.00
29379;BME280;16362;47.202;15.258;2023-01-15T06:00:07;95563.59;;;-0.94;100.00
29379;BME280;16362;47.202;15.258;2023-01-15T06:02:33;95570.59;;;-0.95;100.00
29379;BME280;16362;47.202;15.258;2023-01-15T06:05:00;95564.19;;;-1.02;100.00
29379;BME280;16362;47.202;15.258;2023-01-15T06:07:26;95571.81;;;-0.99;100.00
29379;BME280;16362;47.202;15.258;2023-01-15T06:09:53;95569.81;;;-1.07;100.00
29379;BME280;16362;47.202;15.258;2023-01-15T06:12:19;95572.19;;;-1.15;100.00
29379;BME280;16362;47.202;15.258;2023-01-15T06:14:46;95575.16;;;-1.08;100.00
29379;BME280;16362;47.202;15.258;2023-01-15T06:17:12;95569.69;;;-1.05;100.00
29379;BME280;16362;47.202;15.258;2023-01-15T06:19:40;95573.00;;;-1.03;100.00
29379;BME280;16362;47.202;15.258;2023-01-15T06:22:06;95561.56;;;-1.02;100.00
29379;BME280;16362;47.202;15.258;2023-01-15T06:24:36;95561.81;;;-0.94;100.00
29379;BME280;16362;47.202;15.258;2023-01-15T06:27:02;95555.97;;;-0.86;100.00
29379;BME280;16362;47.202;15.258;2023-01-15T06:29:29;95558.47;;;-0.85;100.00
29379;BME280;16362;47.202;15.258;2023-01-15T06:31:56;95550.22;;;-0.69;100.00
29379;BME280;16362;47.202;15.258;2023-01-15T06:34:22;95549.16;;;-0.66;100.00
29379;BME280;16362;47.202;15.258;2023-01-15T06:36:49;95552.22;;;-0.61;100.00
29379;BME280;16362;47.202;15.258;2023-01-15T06:39:15;95544.38;;;-0.61;100.00
29379;BME280;16362;47.202;15.258;2023-01-15T06:41:42;95553.88;;;-0.60;100.00
29379;BME280;16362;47.202;15.258;2023-01-15T06:44:44;95562.22;;;-0.55;100.00
29379;BME280;16362;47.202;15.258;2023-01-15T06:47:29;95559.97;;;-0.59;100.00
29379;BME280;16362;47.202;15.258;2023-01-15T06:49:56;95558.47;;;-0.85;100.00
29379;BME280;16362;47.202;15.258;2023-01-15T06:52:23;95558.09;;;-0.80;100.00
29379;BME280;16362;47.202;15.258;2023-01-15T06:54:50;95551.44;;;-0.84;100.00
29379;BME280;16362;47.202;15.258;2023-01-15T06:57:17;95553.94;;;-0.94;100.00
29379;BME280;16362;47.202;15.258;2023-01-15T06:59:44;95551.09;;;-1.02;100.00
29379;BME280;16362;47.202;15.258;2023-01-15T07:02:10;95556.00;;;-0.97;100.00
29379;BME280;16362;47.202;15.258;2023-01-15T07:04:37;95556.56;;;-0.94;100.00
29379;BME280;16362;47.202;15.258;2023-01-15T07:07:04;95559.31;;;-0.95;100.00
29379;BME280;16362;47.202;15.258;2023-01-15T07:09:30;95569.31;;;-0.89;100.00
29379;BME280;16362;47.202;15.258;2023-01-15T07:11:57;95557.03;;;-0.89;100.00
29379;BME280;16362;47.202;15.258;2023-01-15T07:14:24;95565.63;;;-0.87;100.00
29379;BME280;16362;47.202;15.258;2023-01-15T07:16:52;95550.34;;;-0.81;100.00
29379;BME280;16362;47.202;15.258;2023-01-15T07:19:18;95549.75;;;-0.74;100.00
29379;BME280;16362;47.202;15.258;2023-01-15T07:21:45;95545.81;;;-0.68;100.00
29379;BME280;16362;47.202;15.258;2023-01-15T07:24:12;95545.31;;;-0.62;100.00
29379;BME280;16362;47.202;15.258;2023-01-15T07:26:39;95545.28;;;-0.51;100.00
29379;BME280;16362;47.202;15.258;2023-01-15T07:29:06;95544.16;;;-0.37;100.00
29379;BME280;16362;47.202;15.258;2023-01-15T07:31:33;95537.94;;;-0.24;100.00
29379;BME280;16362;47.202;15.258;2023-01-15T07:33:59;95527.50;;;-0.14;100.00
29379;BME280;16362;47.202;15.258;2023-01-15T07:36:26;95528.28;;;-0.03;100.00
29379;BME280;16362;47.202;15.258;2023-01-15T07:38:53;95532.69;;;-0.03;100.00
29379;BME280;16362;47.202;15.258;2023-01-15T07:41:19;95528.41;;;-0.04;100.00
29379;BME280;16362;47.202;15.258;2023-01-15T07:44:05;95527.06;;;0.02;100.00
29379;BME280;16362;47.202;15.258;2023-01-15T07:46:49;95529.03;;;0.09;100.00
29379;BME280;16362;47.202;15.258;2023-01-15T07:49:35;95511.06;;;0.05;100.00
29379;BME280;16362;47.202;15.258;2023-01-15T07:52:18;95505.44;;;0.09;100.00
29379;BME280;16362;47.202;15.258;2023-01-15T07:54:45;95494.81;;;0.11;100.00
29379;BME280;16362;47.202;15.258;2023-01-15T07:57:13;95492.94;;;0.23;100.00
29379;BME280;16362;47.202;15.258;2023-01-15T07:59:41;95490.31;;;0.23;100.00
29379;BME280;16362;47.202;15.258;2023-01-15T08:02:07;95492.81;;;0.24;100.00
29379;BME280;16362;47.202;15.258;2023-01-15T08:04:34;95488.66;;;0.22;100.00
29379;BME280;16362;47.202;15.258;2023-01-15T08:07:01;95480.53;;;0.25;100.00
29379;BME280;16362;47.202;15.258;2023-01-15T08:09:28;95487.81;;;0.21;100.00
29379;BME280;16362;47.202;15.258;2023-01-15T08:11:57;95488.66;;;0.22;100.00
29379;BME280;16362;47.202;15.258;2023-01-15T08:14:42;95492.72;;;0.26;100.00
29379;BME280;16362;47.202;15.258;2023-01-15T08:17:27;95498.91;;;0.25;100.00
29379;BME280;16362;47.202;15.258;2023-01-15T08:19:54;95506.00;;;0.34;100.00
29379;BME280;16362;47.202;15.258;2023-01-15T08:22:21;95505.09;;;0.45;100.00
29379;BME280;16362;47.202;15.258;2023-01-15T08:24:47;95499.03;;;0.54;100.00
29379;BME280;16362;47.202;15.258;2023-01-15T08:27:14;95489.56;;;0.63;100.00
29379;BME280;16362;47.202;15.258;2023-01-15T08:29:40;95490.59;;;0.81;100.00
29379;BME280;16362;47.202;15.258;2023-01-15T08:32:07;95467.84;;;1.02;100.00
29379;BME280;16362;47.202;15.258;2023-01-15T08:34:34;95472.97;;;1.13;100.00
29379;BME280;16362;47.202;15.258;2023-01-15T08:37:00;95482.22;;;1.07;100.00
29379;BME280;16362;47.202;15.258;2023-01-15T08:39:27;95478.75;;;1.07;100.00
29379;BME280;16362;47.202;15.258;2023-01-15T08:41:54;95487.19;;;1.10;100.00
29379;BME280;16362;47.202;15.258;2023-01-15T08:44:21;95488.31;;;1.17;100.00
29379;BME280;16362;47.202;15.258;2023-01-15T08:46:49;95493.91;;;1.34;100.00
29379;BME280;16362;47.202;15.258;2023-01-15T08:49:16;95497.34;;;1.34;100.00
29379;BME280;16362;47.202;15.258;2023-01-15T08:51:43;95489.03;;;1.39;100.00
29379;BME280;16362;47.202;15.258;2023-01-15T08:54:10;95485.88;;;1.45;100.00
29379;BME280;16362;47.202;15.258;2023-01-15T08:56:37;95473.69;;;1.54;100.00
29379;BME280;16362;47.202;15.258;2023-01-15T08:59:04;95477.59;;;1.60;100.00
29379;BME280;16362;47.202;15.258;2023-01-15T09:01:31;95470.66;;;1.59;100.00
29379;BME280;16362;47.202;15.258;2023-01-15T09:03:58;95469.81;;;1.58;100.00
29379;BME280;16362;47.202;15.258;2023-01-15T09:06:24;95472.47;;;1.68;100.00
29379;BME280;16362;47.202;15.258;2023-01-15T09:08:51;95464.28;;;1.81;100.00
29379;BME280;16362;47.202;15.258;2023-01-15T09:11:18;95456.47;;;2.09;100.00
29379;BME280;16362;47.202;15.258;2023-01-15T09:13:44;95458.66;;;2.23;100.00
29379;BME280;16362;47.202;15.258;2023-01-15T09:16:15;95459.34;;;2.25;100.00
29379;BME280;16362;47.202;15.258;2023-01-15T09:18:42;95452.41;;;2.24;100.00
29379;BME280;16362;47.202;15.258;2023-01-15T09:21:09;95451.41;;;2.35;100.00
29379;BME280;16362;47.202;15.258;2023-01-15T09:23:36;95447.66;;;2.38;100.00
29379;BME280;16362;47.202;15.258;2023-01-15T09:26:04;95439.34;;;2.42;100.00
29379;BME280;16362;47.202;15.258;2023-01-15T09:28:31;95432.53;;;2.49;100.00
29379;BME280;16362;47.202;15.258;2023-01-15T09:30:58;95426.38;;;2.59;100.00
29379;BME280;16362;47.202;15.258;2023-01-15T09:33:25;95414.28;;;2.66;100.00
29379;BME280;16362;47.202;15.258;2023-01-15T09:35:52;95416.03;;;2.75;100.00
29379;BME280;16362;47.202;15.258;2023-01-15T09:38:19;95408.38;;;2.82;100.00
29379;BME280;16362;47.202;15.258;2023-01-15T09:40:50;95412.06;;;2.89;100.00
29379;BME280;16362;47.202;15.258;2023-01-15T09:46:16;95409.19;;;3.10;100.00
29379;BME280;16362;47.202;15.258;2023-01-15T09:53:47;95399.09;;;3.24;100.00
29379;BME280;16362;47.202;15.258;2023-01-15T09:56:20;95401.56;;;3.25;100.00
29379;BME280;16362;47.202;15.258;2023-01-15T09:58:48;95392.16;;;3.23;100.00
29379;BME280;16362;47.202;15.258;2023-01-15T10:01:17;95384.09;;;3.24;100.00
29379;BME280;16362;47.202;15.258;2023-01-15T10:03:48;95377.00;;;3.25;100.00
29379;BME280;16362;47.202;15.258;2023-01-15T10:07:02;95383.94;;;3.26;100.00
29379;BME280;16362;47.202;15.258;2023-01-15T10:09:10;95373.75;;;3.31;100.00
29379;BME280;16362;47.202;15.258;2023-01-15T10:11:44;95377.75;;;3.35;100.00
29379;BME280;16362;47.202;15.258;2023-01-15T10:14:35;95380.09;;;3.56;100.00
29379;BME280;16362;47.202;15.258;2023-01-15T10:17:07;95378.56;;;3.53;100.00
29379;BME280;16362;47.202;15.258;2023-01-15T10:19:40;95373.91;;;3.47;100.00
29379;BME280;16362;47.202;15.258;2023-01-15T10:22:13;95378.03;;;3.50;100.00
29379;BME280;16362;47.202;15.258;2023-01-15T10:24:44;95372.44;;;3.53;100.00
29379;BME280;16362;47.202;15.258;2023-01-15T10:27:15;95360.13;;;3.53;100.00
29379;BME280;16362;47.202;15.258;2023-01-15T10:32:32;95359.25;;;3.71;100.00
29379;BME280;16362;47.202;15.258;2023-01-15T10:35:06;95349.84;;;3.68;100.00
29379;BME280;16362;47.202;15.258;2023-01-15T10:38:00;95352.09;;;3.63;100.00
29379;BME280;16362;47.202;15.258;2023-01-15T10:40:36;95333.47;;;3.65;100.00
29379;BME280;16362;47.202;15.258;2023-01-15T10:48:13;95322.03;;;3.82;100.00
29379;BME280;16362;47.202;15.258;2023-01-15T10:50:42;95322.41;;;3.87;100.00
29379;BME280;16362;47.202;15.258;2023-01-15T10:55:40;95308.03;;;4.16;100.00
29379;BME280;16362;47.202;15.258;2023-01-15T10:58:16;95309.81;;;4.08;100.00
29379;BME280;16362;47.202;15.258;2023-01-15T11:00:49;95314.94;;;4.09;100.00
29379;BME280;16362;47.202;15.258;2023-01-15T11:03:19;95315.66;;;4.19;100.00
29379;BME280;16362;47.202;15.258;2023-01-15T11:05:46;95306.44;;;4.32;100.00
29379;BME280;16362;47.202;15.258;2023-01-15T11:08:14;95308.16;;;4.41;100.00
29379;BME280;16362;47.202;15.258;2023-01-15T11:11:16;95295.00;;;4.66;99.21
29379;BME280;16362;47.202;15.258;2023-01-15T11:13:55;95293.69;;;4.70;100.00
29379;BME280;16362;47.202;15.258;2023-01-15T11:16:40;95294.50;;;4.79;99.60
29379;BME280;16362;47.202;15.258;2023-01-15T11:19:28;95295.19;;;4.89;99.74
29379;BME280;16362;47.202;15.258;2023-01-15T11:22:10;95290.28;;;5.11;96.53
29379;BME280;16362;47.202;15.258;2023-01-15T11:24:37;95284.16;;;5.10;97.36
29379;BME280;16362;47.202;15.258;2023-01-15T11:27:13;95264.81;;;5.10;97.55
29379;BME280;16362;47.202;15.258;2023-01-15T11:29:42;95265.31;;;5.13;97.76
29379;BME280;16362;47.202;15.258;2023-01-15T11:32:19;95264.81;;;5.18;99.31
29379;BME280;16362;47.202;15.258;2023-01-15T11:34:57;95260.00;;;5.30;98.87
29379;BME280;16362;47.202;15.258;2023-01-15T11:37:24;95255.06;;;5.35;99.60
29379;BME280;16362;47.202;15.258;2023-01-15T11:39:54;95252.06;;;5.38;99.77
29379;BME280;16362;47.202;15.258;2023-01-15T11:42:20;95243.16;;;5.39;99.25
29379;BME280;16362;47.202;15.258;2023-01-15T11:45:25;95254.69;;;5.46;97.20
29379;BME280;16362;47.202;15.258;2023-01-15T11:48:17;95246.56;;;5.72;95.37
29379;BME280;16362;47.202;15.258;2023-01-15T11:51:06;95240.78;;;5.69;93.02
29379;BME280;16362;47.202;15.258;2023-01-15T11:53:37;95235.81;;;5.66;93.68
29379;BME280;16362;47.202;15.258;2023-01-15T11:56:04;95224.25;;;5.59;93.82
29379;BME280;16362;47.202;15.258;2023-01-15T11:58:44;95233.19;;;5.49;93.79
29379;BME280;16362;47.202;15.258;2023-01-15T12:01:13;95234.53;;;5.37;93.98
29379;BME280;16362;47.202;15.258;2023-01-15T12:03:46;95233.06;;;5.43;94.31
29379;BME280;16362;47.202;15.258;2023-01-15T12:06:13;95226.72;;;5.52;93.19
29379;BME280;16362;47.202;15.258;2023-01-15T12:08:43;95227.91;;;5.41;93.47
29379;BME280;16362;47.202;15.258;2023-01-15T12:14:16;95215.69;;;5.48;93.18
29379;BME280;16362;47.202;15.258;2023-01-15T12:16:59;95196.81;;;5.51;91.95
29379;BME280;16362;47.202;15.258;2023-01-15T12:19:34;95193.81;;;5.54;91.38
29379;BME280;16362;47.202;15.258;2023-01-15T12:24:36;95200.78;;;5.55;97.31
29379;BME280;16362;47.202;15.258;2023-01-15T12:27:16;95208.34;;;5.59;97.58
29379;BME280;16362;47.202;15.258;2023-01-15T12:29:47;95224.63;;;5.39;98.04
29379;BME280;16362;47.202;15.258;2023-01-15T12:32:16;95216.03;;;5.29;99.79
29379;BME280;16362;47.202;15.258;2023-01-15T12:37:24;95197.97;;;5.49;100.00
29379;BME280;16362;47.202;15.258;2023-01-15T12:42:25;95203.31;;;5.24;100.00
29379;BME280;16362;47.202;15.258;2023-01-15T12:45:14;95190.59;;;5.28;100.00
29379;BME280;16362;47.202;15.258;2023-01-15T12:52:56;95194.22;;;4.94;100.00
29379;BME280;16362;47.202;15.258;2023-01-15T12:55:25;95197.56;;;4.79;100.00
29379;BME280;16362;47.202;15.258;2023-01-15T12:57:58;95198.88;;;4.75;100.00
29379;BME280;16362;47.202;15.258;2023-01-15T13:00:35;95203.31;;;4.83;100.00
29379;BME280;16362;47.202;15.258;2023-01-15T13:10:49;95201.00;;;4.47;100.00
29379;BME280;16362;47.202;15.258;2023-01-15T13:13:19;95196.34;;;4.41;100.00
29379;BME280;16362;47.202;15.258;2023-01-15T13:16:00;95194.56;;;4.49;100.00
29379;BME280;16362;47.202;15.258;2023-01-15T13:20:55;95187.59;;;4.32;100.00
29379;BME280;16362;47.202;15.258;2023-01-15T13:28:30;95178.81;;;4.23;100.00
29379;BME280;16362;47.202;15.258;2023-01-15T13:31:03;95174.06;;;4.35;100.00
29379;BME280;16362;47.202;15.258;2023-01-15T13:36:05;95184.72;;;4.09;100.00
29379;BME280;16362;47.202;15.258;2023-01-15T13:38:38;95189.34;;;4.07;100.00
29379;BME280;16362;47.202;15.258;2023-01-15T13:41:07;95186.84;;;4.05;100.00
29379;BME280;16362;47.202;15.258;2023-01-15T13:43:37;95175.63;;;4.11;100.00
29379;BME280;16362;47.202;15.258;2023-01-15T13:46:12;95180.31;;;4.26;100.00
29379;BME280;16362;47.202;15.258;2023-01-15T13:48:45;95169.56;;;4.19;100.00
29379;BME280;16362;47.202;15.258;2023-01-15T13:51:31;95172.88;;;4.13;100.00
29379;BME280;16362;47.202;15.258;2023-01-15T13:54:02;95181.56;;;4.05;100.00
29379;BME280;16362;47.202;15.258;2023-01-15T13:56:30;95188.81;;;4.03;100.00
29379;BME280;16362;47.202;15.258;2023-01-15T13:58:58;95180.72;;;4.04;100.00
29379;BME280;16362;47.202;15.258;2023-01-15T14:01:35;95177.63;;;4.09;100.00
29379;BME280;16362;47.202;15.258;2023-01-15T14:09:01;95202.00;;;3.95;100.00
29379;BME280;16362;47.202;15.258;2023-01-15T14:11:34;95208.25;;;3.94;100.00
29379;BME280;16362;47.202;15.258;2023-01-15T14:14:36;95198.50;;;3.86;100.00
29379;BME280;16362;47.202;15.258;2023-01-15T14:17:07;95199.50;;;3.85;100.00
29379;BME280;16362;47.202;15.258;2023-01-15T14:19:41;95199.34;;;3.95;100.00
29379;BME280;16362;47.202;15.258;2023-01-15T14:27:44;95218.34;;;3.98;100.00
29379;BME280;16362;47.202;15.258;2023-01-15T14:30:12;95217.84;;;3.95;100.00
29379;BME280;16362;47.202;15.258;2023-01-15T14:32:50;95228.19;;;3.88;100.00
29379;BME280;16362;47.202;15.258;2023-01-15T14:35:21;95242.84;;;3.82;100.00
29379;BME280;16362;47.202;15.258;2023-01-15T14:40:23;95236.41;;;3.77;100.00